Uelen, Russia
Current Conditions -  °F | °C
As of 3:58 PM on Thursday 23 Oct 2014 (Local Time) from PAIW Reporting Station
Overcast Overcast  
Wind Chill: 24°   Ceiling: 2100
Heat Index: 29°   Visibility: 10mi
Dew Point: 24°   Wind: 5mph
Humidity: 82%   Direction: 60°ENE
Pressure: 29.88"   Gusts: NA
Location:  66.16°N, 169.82°W
Report Text: PAIW 230358Z AUTO 06004KT 10SM OVC021 M02/M04 A2988 RMK AO2 SLP119 T10171044 FZRANO
Loading
Personal Weather Stations






























Interactive Weather Map
Tropical Storm Tracking
New forecast layout! Learn more

10-Day Weather Forecast

Advertisements
Track Severe Weather on mobile